Time;durP1;ratioP1;P1;durP2;ratioP2;P2;SDS_P1;SDS_P2;PMS_P1;PMS_P2;Temp;Humidity;BMP_temperature;BMP_pressure;BME280_temperature;BME280_humidity;BME280_pressure;Samples;Min_cycle;Max_cycle;Signal;HPM_P1;HPM_P2
2022/07/21 00:01:34;;;;;;;10.55;6.72;;;24.40;90.00;;;;;;4975852;28;95603;-73
2022/07/21 00:04:01;;;;;;;9.73;7.13;;;24.40;90.00;;;;;;4974852;28;98101;-73
2022/07/21 00:06:28;;;;;;;10.32;7.60;;;24.30;90.10;;;;;;4976176;28;93198;-73
2022/07/21 00:08:55;;;;;;;9.68;8.30;;;24.40;90.30;;;;;;4977084;28;92438;-73
2022/07/21 00:11:22;;;;;;;12.00;7.45;;;24.30;90.30;;;;;;4975693;28;94941;-73
2022/07/21 00:13:49;;;;;;;9.25;7.70;;;24.20;90.50;;;;;;4976874;28;93055;-73
2022/07/21 00:16:16;;;;;;;11.50;7.93;;;24.20;90.70;;;;;;4975952;28;93012;-73
2022/07/21 00:18:49;;;;;;;8.05;7.20;;;24.20;90.80;;;;;;4977445;28;91631;-73
2022/07/21 00:21:16;;;;;;;9.52;7.47;;;24.20;91.00;;;;;;4991977;28;93226;-73
2022/07/21 00:23:43;;;;;;;10.63;7.53;;;24.10;91.10;;;;;;4991810;28;101126;-73
2022/07/21 00:26:10;;;;;;;9.43;7.45;;;24.10;91.30;;;;;;4975907;28;94764;-73
2022/07/21 00:28:37;;;;;;;10.10;7.85;;;24.00;91.50;;;;;;4976753;28;92397;-73
2022/07/21 00:31:04;;;;;;;10.93;8.23;;;24.00;91.80;;;;;;4976773;28;93239;-73
2022/07/21 00:33:31;;;;;;;12.23;8.35;;;23.90;92.00;;;;;;4976583;28;93706;-73
2022/07/21 00:35:58;;;;;;;13.45;7.43;;;23.90;92.30;;;;;;4977087;28;92430;-73
2022/07/21 00:38:25;;;;;;;10.13;9.05;;;23.90;92.50;;;;;;4992083;28;92513;-73
2022/07/21 00:40:53;;;;;;;12.65;9.00;;;23.80;92.70;;;;;;4975131;28;93003;-73
2022/07/21 00:43:20;;;;;;;16.13;10.10;;;23.80;93.00;;;;;;4976711;28;92972;-73
2022/07/21 00:45:47;;;;;;;14.45;9.50;;;23.80;93.30;;;;;;4974357;28;92651;-73
2022/07/21 00:48:14;;;;;;;13.43;9.10;;;23.80;93.70;;;;;;4975072;28;92558;-73
2022/07/21 00:50:41;;;;;;;11.70;8.98;;;23.70;93.90;;;;;;4973525;28;95343;-73
2022/07/21 00:53:08;;;;;;;13.23;9.68;;;23.70;94.00;;;;;;4976383;28;95471;-73
2022/07/21 00:55:36;;;;;;;10.90;9.35;;;23.60;94.10;;;;;;4976269;28;92475;-73
2022/07/21 00:58:03;;;;;;;13.25;9.75;;;23.60;94.30;;;;;;4975235;28;92544;-73
2022/07/21 01:00:31;;;;;;;16.20;9.80;;;23.50;94.50;;;;;;4974655;28;95701;-73
2022/07/21 01:03:04;;;;;;;12.15;9.77;;;23.50;94.70;;;;;;4990781;28;92975;-73
2022/07/21 01:05:31;;;;;;;13.98;10.10;;;23.30;94.80;;;;;;4974717;28;92515;-73
2022/07/21 01:08:02;;;;;;;12.15;10.18;;;23.30;95.00;;;;;;4974726;28;91807;-73
2022/07/21 01:10:31;;;;;;;11.93;9.73;;;23.30;95.20;;;;;;4990190;28;93333;-73
2022/07/21 01:13:00;;;;;;;12.15;9.43;;;23.20;95.50;;;;;;4975998;28;92819;-73
2022/07/21 01:15:28;;;;;;;15.23;11.73;;;23.20;95.50;;;;;;4973745;28;95875;-73
2022/07/21 01:17:55;;;;;;;16.30;10.40;;;23.20;95.80;;;;;;4990957;28;92515;-73
2022/07/21 01:20:24;;;;;;;14.98;11.30;;;23.10;96.10;;;;;;4975404;28;95610;-73
2022/07/21 01:22:57;;;;;;;13.50;11.32;;;23.10;96.40;;;;;;4974017;28;93059;-73
2022/07/21 01:25:24;;;;;;;11.98;10.77;;;23.00;96.40;;;;;;4975531;28;92372;-73
2022/07/21 01:27:51;;;;;;;15.07;11.18;;;23.00;96.60;;;;;;4975393;28;92451;-74
2022/07/21 01:30:18;;;;;;;17.92;11.18;;;23.00;96.70;;;;;;4974742;28;93270;-73
2022/07/21 01:32:46;;;;;;;13.73;11.40;;;22.90;96.90;;;;;;4975563;28;92871;-73
2022/07/21 01:35:15;;;;;;;17.40;12.40;;;22.90;97.20;;;;;;4974207;28;92500;-73
2022/07/21 01:37:45;;;;;;;13.90;11.70;;;22.90;97.30;;;;;;4975132;28;92480;-73
2022/07/21 01:43:19;;;;;;;15.38;12.38;;;22.90;97.50;;;;;;4933921;28;95540;-73
2022/07/21 01:45:46;;;;;;;15.35;11.55;;;22.80;97.70;;;;;;4917867;28;92624;-73
2022/07/21 01:48:13;;;;;;;16.30;12.90;;;22.80;97.70;;;;;;4942706;28;92580;-73
2022/07/21 01:50:39;;;;;;;14.68;11.18;;;22.80;97.80;;;;;;4973861;28;93278;-73
2022/07/21 01:53:06;;;;;;;13.63;12.23;;;22.80;97.70;;;;;;4975125;28;93198;-73
2022/07/21 01:55:35;;;;;;;14.05;12.00;;;22.80;97.90;;;;;;4990585;28;92433;-73
2022/07/21 01:58:02;;;;;;;15.00;12.98;;;22.80;97.90;;;;;;4975056;28;98604;-73
2022/07/21 02:00:29;;;;;;;15.35;13.05;;;22.80;97.90;;;;;;4957522;28;95634;-73
2022/07/21 02:02:55;;;;;;;17.13;13.13;;;22.90;97.90;;;;;;4974632;28;92980;-73
2022/07/21 02:05:23;;;;;;;16.30;12.40;;;22.90;98.00;;;;;;4973666;28;94751;-73
2022/07/21 02:07:50;;;;;;;18.55;13.57;;;22.80;98.00;;;;;;4990062;28;92526;-73
2022/07/21 02:10:17;;;;;;;14.35;12.95;;;22.80;98.00;;;;;;4974925;28;93099;-73
2022/07/21 02:12:44;;;;;;;15.93;14.30;;;22.80;98.10;;;;;;4973292;28;95707;-73
2022/07/21 02:15:11;;;;;;;18.80;14.30;;;22.80;98.00;;;;;;4975064;28;92475;-73
2022/07/21 02:17:38;;;;;;;14.77;12.43;;;22.80;98.10;;;;;;4973241;28;92487;-73
2022/07/21 02:20:05;;;;;;;16.95;14.38;;;22.70;98.00;;;;;;4974813;28;93203;-73
2022/07/21 02:22:32;;;;;;;15.80;13.23;;;22.70;98.10;;;;;;4990102;28;93162;-73
2022/07/21 02:24:59;;;;;;;15.27;13.38;;;22.60;98.10;;;;;;4974752;28;92434;-73
2022/07/21 02:27:26;;;;;;;14.27;11.80;;;22.60;98.20;;;;;;4973267;28;99199;-73
2022/07/21 02:29:53;;;;;;;14.85;12.30;;;22.60;98.20;;;;;;4988490;28;95784;-73
2022/07/21 02:32:20;;;;;;;15.23;13.40;;;22.50;98.20;;;;;;4974970;28;95303;-73
2022/07/21 02:34:47;;;;;;;15.27;12.23;;;22.50;98.30;;;;;;4989659;28;92475;-73
2022/07/21 02:37:14;;;;;;;15.23;12.43;;;22.50;98.30;;;;;;4974861;28;92476;-73
2022/07/21 02:39:41;;;;;;;13.80;12.27;;;22.40;98.40;;;;;;4974902;28;93086;-73
2022/07/21 02:42:08;;;;;;;15.20;12.07;;;22.40;98.50;;;;;;4976708;28;94566;-73
2022/07/21 02:44:36;;;;;;;16.38;12.73;;;22.40;98.60;;;;;;4978072;28;92331;-73
2022/07/21 02:47:03;;;;;;;14.60;12.50;;;22.30;98.60;;;;;;4960536;28;92172;-73
2022/07/21 02:49:30;;;;;;;15.63;13.68;;;22.30;98.70;;;;;;4993077;28;96006;-73
2022/07/21 02:51:57;;;;;;;15.85;13.05;;;22.30;98.70;;;;;;4992999;28;93064;-73
2022/07/21 02:54:24;;;;;;;14.02;12.00;;;22.20;98.90;;;;;;4992004;28;94932;-73
2022/07/21 02:56:51;;;;;;;17.75;13.55;;;22.20;99.00;;;;;;4976717;28;92664;-73
2022/07/21 02:59:18;;;;;;;17.23;13.80;;;22.20;99.10;;;;;;4977811;28;93209;-73
2022/07/21 03:01:45;;;;;;;16.77;14.32;;;22.20;99.20;;;;;;4977735;28;92505;-73
2022/07/21 03:04:12;;;;;;;16.42;14.60;;;22.20;99.20;;;;;;4977310;28;92392;-73
2022/07/21 03:06:40;;;;;;;19.25;14.60;;;22.20;99.30;;;;;;4976537;28;92523;-72
2022/07/21 03:09:07;;;;;;;18.02;15.05;;;22.20;99.30;;;;;;4992503;28;95773;-73
2022/07/21 03:11:34;;;;;;;18.40;13.30;;;22.10;99.30;;;;;;4977884;28;93098;-73
2022/07/21 03:14:01;;;;;;;17.05;13.45;;;22.20;99.30;;;;;;4977637;28;92647;-73
2022/07/21 03:16:28;;;;;;;16.38;14.07;;;22.10;99.30;;;;;;4977940;28;92367;-73
2022/07/21 03:18:56;;;;;;;15.40;13.85;;;22.20;99.40;;;;;;4991301;28;95913;-73
2022/07/21 03:21:23;;;;;;;17.08;13.85;;;22.20;99.40;;;;;;4977283;28;96169;-73
2022/07/21 03:23:50;;;;;;;16.75;15.00;;;22.20;99.40;;;;;;4976032;28;92572;-73
2022/07/21 03:26:17;;;;;;;18.67;14.00;;;22.20;99.50;;;;;;4977684;28;92327;-73
2022/07/21 03:28:44;;;;;;;22.08;15.55;;;22.20;99.50;;;;;;4975931;28;94242;-73
2022/07/21 03:31:11;;;;;;;15.07;13.20;;;22.20;99.40;;;;;;4975753;28;93988;-73
2022/07/21 03:33:38;;;;;;;20.27;15.60;;;22.20;99.50;;;;;;4977474;28;92423;-73
2022/07/21 03:36:07;;;;;;;20.38;16.02;;;22.20;99.60;;;;;;4977375;28;93231;-73
2022/07/21 03:38:34;;;;;;;17.50;15.60;;;22.20;99.60;;;;;;4977177;28;93204;-73
2022/07/21 03:41:01;;;;;;;16.23;14.63;;;22.20;99.60;;;;;;4975201;28;94107;-73
2022/07/21 03:43:28;;;;;;;18.90;15.77;;;22.20;99.60;;;;;;4976083;28;94892;-73
2022/07/21 03:45:55;;;;;;;16.95;14.35;;;22.20;99.70;;;;;;4992465;28;92456;-73
2022/07/21 03:48:21;;;;;;;18.85;15.50;;;22.20;99.70;;;;;;4977142;28;93039;-73
2022/07/21 03:50:48;;;;;;;16.55;14.57;;;22.20;99.80;;;;;;4976889;28;93095;-73
2022/07/21 03:53:15;;;;;;;17.48;14.57;;;22.20;99.80;;;;;;4976126;28;92635;-73
2022/07/21 03:55:42;;;;;;;18.23;16.20;;;22.20;99.80;;;;;;4977061;28;92551;-73
2022/07/21 03:58:09;;;;;;;20.77;15.68;;;22.20;99.80;;;;;;4976915;28;93499;-73
2022/07/21 04:00:40;;;;;;;18.42;15.50;;;22.20;99.90;;;;;;4977103;28;93149;-73
2022/07/21 04:03:08;;;;;;;19.63;15.95;;;22.20;99.90;;;;;;4976900;28;92469;-73
2022/07/21 04:05:36;;;;;;;21.40;16.20;;;22.20;99.90;;;;;;4992096;28;92518;-72
2022/07/21 04:08:04;;;;;;;19.90;16.00;;;22.10;99.90;;;;;;4975067;28;100110;-72
2022/07/21 04:10:33;;;;;;;18.08;16.15;;;22.10;99.90;;;;;;4975124;28;98198;-72
2022/07/21 04:13:03;;;;;;;19.67;16.50;;;22.10;99.90;;;;;;4975376;28;92442;-72
2022/07/21 04:15:30;;;;;;;21.00;16.85;;;22.10;99.90;;;;;;4976929;28;92851;-72
2022/07/21 04:17:57;;;;;;;20.80;17.23;;;22.10;99.90;;;;;;4976459;28;93287;-72
2022/07/21 04:20:25;;;;;;;16.60;14.80;;;22.10;99.90;;;;;;4976072;28;109083;-72
2022/07/21 04:22:53;;;;;;;18.35;16.42;;;22.10;99.90;;;;;;4975125;28;92542;-73
2022/07/21 04:25:20;;;;;;;20.40;16.13;;;22.10;99.90;;;;;;4975795;28;91699;-72
2022/07/21 04:27:49;;;;;;;19.10;16.13;;;22.10;99.90;;;;;;4991646;28;93351;-72
2022/07/21 04:30:18;;;;;;;18.85;15.40;;;22.10;99.90;;;;;;4974785;28;95404;-72
2022/07/21 04:32:45;;;;;;;21.42;17.73;;;22.20;99.90;;;;;;4975318;28;95427;-72
2022/07/21 04:35:13;;;;;;;20.80;17.45;;;22.20;99.90;;;;;;4974573;28;92512;-72
2022/07/21 04:37:41;;;;;;;19.45;17.35;;;22.20;99.90;;;;;;4974898;28;93321;-72
2022/07/21 04:40:10;;;;;;;20.38;16.83;;;22.30;99.90;;;;;;4976102;28;93124;-72
2022/07/21 04:42:38;;;;;;;20.08;17.45;;;22.30;99.90;;;;;;4976370;28;92459;-72
2022/07/21 04:45:07;;;;;;;20.42;18.33;;;22.30;99.90;;;;;;4974732;28;92475;-72
2022/07/21 04:47:52;;;;;;;23.63;17.58;;;22.40;99.90;;;;;;4976113;28;92379;-72
2022/07/21 04:50:25;;;;;;;19.25;17.20;;;22.40;99.90;;;;;;4974766;28;97157;-72
2022/07/21 04:52:52;;;;;;;20.35;18.00;;;22.40;99.90;;;;;;4974876;28;92853;-73
2022/07/21 04:55:21;;;;;;;21.77;16.70;;;22.40;99.90;;;;;;4975900;28;92328;-73
2022/07/21 04:57:50;;;;;;;21.67;18.10;;;22.40;99.90;;;;;;4974814;28;95753;-73
2022/07/21 05:00:19;;;;;;;20.08;17.92;;;22.40;99.90;;;;;;4973457;28;103459;-73
2022/07/21 05:02:47;;;;;;;22.75;19.95;;;22.40;99.90;;;;;;4975587;28;92494;-72
2022/07/21 05:05:14;;;;;;;25.38;22.55;;;22.40;99.90;;;;;;4973225;28;92594;-72
2022/07/21 05:07:41;;;;;;;24.73;22.20;;;22.50;99.90;;;;;;4974416;28;95740;-72
2022/07/21 05:10:11;;;;;;;24.13;21.52;;;22.50;99.90;;;;;;4975579;28;93086;-72
2022/07/21 05:12:38;;;;;;;25.13;22.45;;;22.50;99.90;;;;;;4974682;28;92714;-72
2022/07/21 05:15:07;;;;;;;25.88;23.27;;;22.50;99.90;;;;;;4976031;28;91703;-72
2022/07/21 05:17:34;;;;;;;24.58;22.08;;;22.60;99.90;;;;;;4990641;28;93589;-72
2022/07/21 05:20:02;;;;;;;27.35;24.40;;;22.60;99.90;;;;;;4975850;28;92826;-72
2022/07/21 05:22:29;;;;;;;25.88;23.17;;;22.60;99.90;;;;;;4973300;28;94862;-72
2022/07/21 05:24:56;;;;;;;25.48;22.40;;;22.60;99.90;;;;;;4974279;28;92930;-72
2022/07/21 05:27:23;;;;;;;27.38;24.63;;;22.60;99.90;;;;;;4973841;28;95655;-72
2022/07/21 05:29:50;;;;;;;24.90;22.40;;;22.70;99.90;;;;;;4974272;28;93027;-72
2022/07/21 05:32:17;;;;;;;25.70;22.92;;;22.70;99.90;;;;;;4973817;28;99593;-73
2022/07/21 05:34:44;;;;;;;23.90;21.38;;;22.70;99.90;;;;;;4975515;28;92496;-72
2022/07/21 05:37:10;;;;;;;23.92;21.60;;;22.70;99.90;;;;;;4975230;28;97113;-72
2022/07/21 05:39:38;;;;;;;23.35;21.13;;;22.80;99.90;;;;;;4974312;28;96089;-72
2022/07/21 05:42:05;;;;;;;24.23;21.75;;;22.80;99.80;;;;;;4990646;28;92560;-72
2022/07/21 05:44:32;;;;;;;24.23;21.30;;;22.80;99.80;;;;;;4974482;28;92399;-73
2022/07/21 05:46:59;;;;;;;24.40;21.92;;;22.90;99.70;;;;;;4973921;28;95694;-73
2022/07/21 05:49:26;;;;;;;25.10;22.65;;;23.00;99.60;;;;;;4974765;28;95562;-73
2022/07/21 05:51:52;;;;;;;23.60;21.33;;;23.10;99.50;;;;;;4974060;28;92468;-72
2022/07/21 05:54:19;;;;;;;23.40;21.13;;;23.20;99.30;;;;;;4990412;28;92499;-72
2022/07/21 05:56:46;;;;;;;24.00;21.55;;;23.30;99.20;;;;;;4975187;28;93425;-72
2022/07/21 05:59:13;;;;;;;22.38;20.25;;;23.30;99.10;;;;;;4973640;28;93103;-73
2022/07/21 06:01:40;;;;;;;21.67;19.63;;;23.40;98.90;;;;;;4974973;28;95200;-72
2022/07/21 06:04:07;;;;;;;22.58;20.25;;;23.40;98.70;;;;;;4975254;28;91706;-73
2022/07/21 06:06:34;;;;;;;20.05;17.90;;;23.40;98.60;;;;;;4990236;28;95832;-72
2022/07/21 06:09:01;;;;;;;19.55;17.55;;;23.40;98.60;;;;;;4973870;28;93165;-72
2022/07/21 06:11:28;;;;;;;19.42;17.42;;;23.40;98.30;;;;;;4973634;28;94859;-72
2022/07/21 06:14:02;;;;;;;21.35;19.02;;;23.50;98.30;;;;;;4974071;28;92934;-72
2022/07/21 06:16:29;;;;;;;20.27;18.33;;;23.50;98.20;;;;;;4995780;28;95702;-72
2022/07/21 06:18:56;;;;;;;20.35;18.38;;;23.50;98.20;;;;;;4981504;28;93046;-72
2022/07/21 06:21:23;;;;;;;22.58;20.38;;;23.60;98.20;;;;;;4981403;28;92454;-72
2022/07/21 06:23:50;;;;;;;22.20;20.02;;;23.60;98.00;;;;;;4980177;28;92484;-72
2022/07/21 06:26:18;;;;;;;22.30;20.20;;;23.60;98.00;;;;;;4979583;28;95906;-73
2022/07/21 06:28:45;;;;;;;22.52;20.33;;;23.70;98.00;;;;;;4979666;28;111080;-73
2022/07/21 06:31:12;;;;;;;23.95;21.65;;;23.70;98.00;;;;;;4980172;28;93058;-73
2022/07/21 06:33:38;;;;;;;25.00;22.52;;;23.60;98.10;;;;;;4980124;28;92422;-73
2022/07/21 06:36:07;;;;;;;24.85;22.45;;;23.70;98.10;;;;;;4978519;28;98028;-72
2022/07/21 06:38:34;;;;;;;25.73;23.15;;;23.60;98.20;;;;;;4979555;28;96858;-72
2022/07/21 06:41:01;;;;;;;27.67;24.98;;;23.60;98.30;;;;;;4996579;28;92433;-72
2022/07/21 06:43:28;;;;;;;26.33;23.73;;;23.60;98.30;;;;;;4979592;28;92583;-73
2022/07/21 06:45:56;;;;;;;25.65;23.23;;;23.60;98.30;;;;;;4981081;28;93300;-73
2022/07/21 06:48:24;;;;;;;24.35;22.05;;;23.60;98.30;;;;;;4979564;28;92883;-73
2022/07/21 06:50:53;;;;;;;24.27;21.98;;;23.60;98.20;;;;;;4979735;28;92481;-73
2022/07/21 06:53:21;;;;;;;26.27;23.52;;;23.70;98.20;;;;;;4981076;28;99189;-73
2022/07/21 06:55:52;;;;;;;25.90;23.30;;;23.70;98.20;;;;;;4980969;28;93152;-73
2022/07/21 06:58:24;;;;;;;24.67;22.40;;;23.70;98.00;;;;;;4979332;28;95596;-72
2022/07/21 07:00:51;;;;;;;24.17;21.67;;;23.80;97.90;;;;;;4978636;28;95474;-72
2022/07/21 07:03:19;;;;;;;25.45;23.05;;;23.80;97.70;;;;;;4980137;28;92425;-72
2022/07/21 07:05:48;;;;;;;22.95;20.85;;;23.80;97.70;;;;;;4979286;28;95845;-72
2022/07/21 07:08:15;;;;;;;23.77;21.52;;;23.80;97.60;;;;;;4981014;28;93124;-72
2022/07/21 07:10:43;;;;;;;24.23;22.23;;;23.80;97.60;;;;;;4980767;28;92582;-73
2022/07/21 07:13:10;;;;;;;24.92;22.70;;;23.80;97.60;;;;;;4981067;28;92425;-72
2022/07/21 07:15:57;;;;;;;23.90;21.60;;;23.70;97.70;;;;;;4980729;28;93239;-73
2022/07/21 07:18:25;;;;;;;21.75;19.73;;;23.70;97.80;;;;;;4979742;28;91931;-75
2022/07/21 07:20:52;;;;;;;23.20;20.98;;;23.70;97.90;;;;;;4981043;28;92426;-75
2022/07/21 07:23:19;;;;;;;23.08;20.75;;;23.80;97.80;;;;;;4996324;28;92433;-75
2022/07/21 07:25:46;;;;;;;24.35;22.17;;;23.80;97.70;;;;;;4978055;28;95734;-75
2022/07/21 07:28:13;;;;;;;23.80;21.50;;;23.90;97.60;;;;;;4976123;28;106754;-75
2022/07/21 07:30:40;;;;;;;24.05;21.85;;;23.90;97.60;;;;;;4992453;28;93155;-75
2022/07/21 07:33:07;;;;;;;22.95;20.73;;;23.90;97.60;;;;;;4977486;28;92531;-75
2022/07/21 07:35:34;;;;;;;24.45;21.40;;;24.00;97.50;;;;;;4992372;28;93421;-75
2022/07/21 07:38:02;;;;;;;22.02;20.20;;;24.10;97.30;;;;;;4976041;28;92598;-75
2022/07/21 07:40:29;;;;;;;25.20;22.88;;;24.30;97.20;;;;;;4975737;28;92543;-75
2022/07/21 07:42:56;;;;;;;23.27;21.10;;;24.50;96.90;;;;;;4977424;28;91782;-75
2022/07/21 07:45:26;;;;;;;23.10;20.92;;;24.70;96.60;;;;;;4975750;28;93322;-75
2022/07/21 07:47:53;;;;;;;24.63;22.42;;;24.80;96.20;;;;;;4992312;28;93089;-73
2022/07/21 07:50:20;;;;;;;21.92;19.80;;;25.00;95.90;;;;;;4975878;28;94862;-73
2022/07/21 07:52:47;;;;;;;21.58;19.67;;;25.20;95.60;;;;;;4976913;28;92507;-73
2022/07/21 07:55:14;;;;;;;22.95;20.73;;;25.30;95.30;;;;;;4992229;28;93262;-73
2022/07/21 07:57:43;;;;;;;20.90;19.20;;;25.40;95.00;;;;;;4976532;28;93182;-73
2022/07/21 08:00:15;;;;;;;20.92;18.92;;;25.40;94.80;;;;;;4977066;28;92459;-73
2022/07/21 08:03:02;;;;;;;23.30;21.10;;;25.50;94.60;;;;;;4976143;28;92744;-73
2022/07/21 08:05:29;;;;;;;22.60;20.60;;;25.50;94.70;;;;;;4974969;28;93236;-73
2022/07/21 08:07:56;;;;;;;21.90;19.92;;;25.90;94.60;;;;;;4975201;28;105382;-73
2022/07/21 08:10:23;;;;;;;20.77;18.88;;;26.30;94.10;;;;;;4975666;28;92629;-73
2022/07/21 08:13:09;;;;;;;19.42;17.83;;;26.80;93.70;;;;;;4976976;28;93175;-73
2022/07/21 08:15:37;;;;;;;19.15;17.58;;;27.80;92.90;;;;;;4990187;28;95657;-73
2022/07/21 08:18:04;;;;;;;19.42;17.67;;;28.70;91.20;;;;;;4976435;28;95518;-73
2022/07/21 08:20:33;;;;;;;19.77;17.98;;;29.20;89.60;;;;;;4976343;28;92573;-73
2022/07/21 08:23:00;;;;;;;19.30;17.55;;;29.30;87.80;;;;;;4975267;28;92424;-73
2022/07/21 08:25:28;;;;;;;18.58;17.08;;;29.30;87.00;;;;;;4975223;28;95939;-73
2022/07/21 08:27:55;;;;;;;17.55;15.75;;;29.20;87.00;;;;;;4991639;28;93004;-73
2022/07/21 08:30:22;;;;;;;17.58;15.90;;;29.10;86.80;;;;;;4976547;28;92453;-73
2022/07/21 08:32:55;;;;;;;17.73;16.23;;;29.10;86.60;;;;;;4976754;28;91799;-73
2022/07/21 08:35:22;;;;;;;16.95;15.52;;;29.20;85.90;;;;;;4974612;28;95827;-73
2022/07/21 08:38:09;;;;;;;18.27;16.73;;;29.20;85.90;;;;;;4974779;28;93265;-73
2022/07/21 08:40:40;;;;;;;18.15;16.55;;;29.10;85.30;;;;;;4975130;28;94751;-73
2022/07/21 08:43:08;;;;;;;20.38;18.52;;;28.80;86.60;;;;;;4976630;28;93145;-73
2022/07/21 08:45:37;;;;;;;20.45;18.70;;;28.60;87.00;;;;;;4974384;28;93354;-73
2022/07/21 08:48:05;;;;;;;19.67;17.85;;;28.70;87.20;;;;;;4974940;28;93068;-73
2022/07/21 08:50:35;;;;;;;17.33;15.88;;;29.20;86.90;;;;;;4975963;28;92439;-73
2022/07/21 08:53:02;;;;;;;17.02;15.52;;;30.10;85.90;;;;;;4975167;28;92400;-73
2022/07/21 08:55:34;;;;;;;16.10;14.80;;;30.80;81.80;;;;;;4975807;28;93228;-73
2022/07/21 08:58:03;;;;;;;17.20;15.80;;;31.40;80.30;;;;;;4991052;28;93111;-74
2022/07/21 09:00:34;;;;;;;17.17;15.80;;;32.00;77.30;;;;;;4976233;28;92491;-74
2022/07/21 09:03:09;;;;;;;17.65;15.95;;;32.20;75.50;;;;;;4975849;28;92416;-73
2022/07/21 09:05:36;;;;;;;15.88;14.68;;;32.40;74.10;;;;;;4974287;28;94810;-74
2022/07/21 09:08:03;;;;;;;17.52;15.88;;;32.40;73.80;;;;;;4991003;28;95492;-74
2022/07/21 09:10:31;;;;;;;14.73;13.45;;;32.60;73.00;;;;;;4974554;28;92616;-74
2022/07/21 09:13:02;;;;;;;17.05;15.43;;;32.60;72.40;;;;;;4975672;28;92463;-74
2022/07/21 09:15:31;;;;;;;14.90;13.75;;;32.40;72.20;;;;;;4975720;28;93259;-74
2022/07/21 09:18:07;;;;;;;15.52;14.30;;;32.00;72.60;;;;;;4975477;28;92500;-73
2022/07/21 09:20:39;;;;;;;16.25;14.95;;;31.70;72.20;;;;;;4975671;28;92423;-73
2022/07/21 09:23:10;;;;;;;17.33;15.93;;;31.20;73.30;;;;;;4974553;28;91839;-73
2022/07/21 09:26:00;;;;;;;17.73;16.23;;;30.90;73.80;;;;;;4975459;28;93149;-73
2022/07/21 09:28:29;;;;;;;16.25;14.95;;;30.70;74.10;;;;;;4990687;28;93014;-73
2022/07/21 09:31:08;;;;;;;19.15;17.45;;;30.30;74.80;;;;;;4974172;28;94776;-73
2022/07/21 09:33:39;;;;;;;19.15;17.60;;;30.20;75.60;;;;;;4957877;28;92433;-73
2022/07/21 09:36:08;;;;;;;19.70;18.05;;;30.00;76.20;;;;;;4975587;28;93251;-73
2022/07/21 09:38:38;;;;;;;21.77;19.88;;;29.80;76.70;;;;;;4974207;28;93151;-73
2022/07/21 09:41:07;;;;;;;21.70;19.80;;;29.60;76.90;;;;;;4974156;28;92479;-73
2022/07/21 09:43:47;;;;;;;23.10;21.23;;;29.50;77.40;;;;;;4975566;28;92526;-73
2022/07/21 09:46:16;;;;;;;22.38;20.58;;;29.40;77.90;;;;;;4973812;28;96005;-73
2022/07/21 09:48:45;;;;;;;22.25;20.20;;;29.30;78.80;;;;;;4975379;28;93099;-73
2022/07/21 09:51:25;;;;;;;20.95;19.02;;;29.10;79.10;;;;;;4973970;28;92651;-73
2022/07/21 09:53:58;;;;;;;22.70;20.70;;;29.00;78.90;;;;;;4975165;28;92485;-73
2022/07/21 09:56:28;;;;;;;20.50;18.65;;;29.00;78.80;;;;;;4974026;28;95660;-73
2022/07/21 09:58:57;;;;;;;19.90;18.20;;;29.00;78.50;;;;;;4973358;28;95534;-73
2022/07/21 10:01:26;;;;;;;18.40;16.88;;;29.10;77.90;;;;;;4973888;28;92519;-73
2022/07/21 10:03:54;;;;;;;19.35;17.75;;;29.10;77.70;;;;;;4974542;28;92534;-73
2022/07/21 10:06:27;;;;;;;20.90;18.88;;;29.10;77.30;;;;;;4973816;28;95733;-73
2022/07/21 10:08:59;;;;;;;21.65;19.85;;;29.00;77.50;;;;;;4974967;28;94215;-72
2022/07/21 10:11:27;;;;;;;21.70;19.80;;;28.90;77.60;;;;;;4973775;28;92433;-73
2022/07/21 10:13:56;;;;;;;18.17;16.63;;;28.80;78.00;;;;;;4975101;28;92140;-74
2022/07/21 10:16:24;;;;;;;20.63;18.92;;;28.70;78.50;;;;;;4990016;28;93286;-74
2022/07/21 10:19:27;;;;;;;21.42;19.52;;;28.70;79.00;;;;;;4974785;28;93093;-73
2022/07/21 10:22:30;;;;;;;22.02;20.23;;;28.70;79.10;;;;;;4970933;28;94938;-73
2022/07/21 10:24:58;;;;;;;21.88;19.90;;;28.70;79.50;;;;;;4975247;28;92421;-73
2022/07/21 10:27:25;;;;;;;19.65;17.83;;;28.70;79.80;;;;;;4974828;28;93263;-74
2022/07/21 10:30:14;;;;;;;20.27;18.50;;;28.80;79.50;;;;;;4987867;28;93187;-73
2022/07/21 10:32:49;;;;;;;21.83;19.52;;;28.90;79.10;;;;;;4974731;28;92432;-73
2022/07/21 10:35:26;;;;;;;20.88;19.08;;;28.90;79.20;;;;;;4975138;28;92472;-73
2022/07/21 10:37:55;;;;;;;21.77;19.60;;;28.90;78.80;;;;;;4974699;28;93829;-73
2022/07/21 10:40:22;;;;;;;21.20;19.17;;;28.90;78.70;;;;;;4974789;28;92791;-73
2022/07/21 10:43:01;;;;;;;21.45;19.45;;;29.00;78.20;;;;;;4974653;28;92478;-73
2022/07/21 10:45:34;;;;;;;21.90;20.00;;;29.10;77.80;;;;;;4973650;28;92489;-74
2022/07/21 10:48:03;;;;;;;22.65;20.65;;;29.30;77.60;;;;;;4973384;28;95584;-74
2022/07/21 10:50:39;;;;;;;20.58;18.88;;;29.40;77.40;;;;;;4973742;28;112788;-73
2022/07/21 10:53:15;;;;;;;21.73;19.80;;;29.70;77.30;;;;;;4973317;28;92480;-73
2022/07/21 10:55:53;;;;;;;19.75;17.85;;;29.80;76.40;;;;;;4974604;28;92395;-72
2022/07/21 10:58:23;;;;;;;21.05;19.05;;;29.90;75.70;;;;;;4973151;28;95676;-73
2022/07/21 11:00:57;;;;;;;23.10;20.90;;;29.90;75.30;;;;;;4974280;28;93429;-73
2022/07/21 11:03:28;;;;;;;21.55;19.17;;;29.60;75.60;;;;;;4975734;28;93060;-72
2022/07/21 11:06:18;;;;;;;25.63;23.05;;;29.40;76.30;;;;;;4978283;28;91613;-72
2022/07/21 11:09:02;;;;;;;26.55;23.92;;;29.30;76.80;;;;;;4977915;28;93390;-73
2022/07/21 11:11:35;;;;;;;29.13;26.27;;;29.10;78.40;;;;;;4975967;28;96074;-72
2022/07/21 11:14:14;;;;;;;26.40;23.88;;;29.00;79.50;;;;;;4974944;28;94984;-73
2022/07/21 11:19:39;;;;;;;28.33;25.45;;;28.90;80.60;;;;;;4992620;28;95672;-73
2022/07/21 11:22:23;;;;;;;25.90;23.40;;;29.00;81.00;;;;;;4975741;28;92603;-73
2022/07/21 11:24:57;;;;;;;28.08;25.25;;;29.00;80.90;;;;;;4977669;28;92460;-73
2022/07/21 11:27:29;;;;;;;26.42;23.83;;;29.00;80.70;;;;;;4977507;28;92407;-73
2022/07/21 11:30:00;;;;;;;26.95;24.42;;;29.10;79.90;;;;;;4976867;28;92475;-73
2022/07/21 11:32:29;;;;;;;29.00;26.33;;;29.20;79.80;;;;;;4977560;28;91936;-73
2022/07/21 11:34:58;;;;;;;27.25;24.63;;;29.40;79.30;;;;;;4975858;28;92924;-73
2022/07/21 11:37:35;;;;;;;28.25;25.52;;;29.60;78.40;;;;;;4977300;28;92436;-73
2022/07/21 11:40:28;;;;;;;26.30;23.90;;;29.90;77.40;;;;;;4975687;28;95825;-73
2022/07/21 11:42:55;;;;;;;28.90;26.20;;;30.30;75.90;;;;;;4976901;28;94332;-73
2022/07/21 11:45:28;;;;;;;30.85;28.00;;;30.50;75.90;;;;;;4977187;28;92477;-73
2022/07/21 11:47:55;;;;;;;27.55;24.95;;;30.80;75.00;;;;;;4976083;28;92742;-73
2022/07/21 11:50:22;;;;;;;28.33;25.65;;;31.00;74.70;;;;;;4977041;28;93297;-73
2022/07/21 11:52:50;;;;;;;29.67;27.00;;;31.20;73.80;;;;;;4976899;28;93059;-73
2022/07/21 11:55:17;;;;;;;26.02;23.73;;;31.30;73.10;;;;;;4958709;28;99849;-73
2022/07/21 11:57:45;;;;;;;25.90;23.60;;;31.40;72.20;;;;;;4976122;28;91800;-73
2022/07/21 12:00:14;;;;;;;25.65;23.17;;;31.30;71.50;;;;;;4976274;28;100479;-73
2022/07/21 12:02:42;;;;;;;25.48;23.00;;;31.30;71.90;;;;;;4977032;28;92975;-73
2022/07/21 12:05:10;;;;;;;24.95;22.73;;;31.40;71.10;;;;;;4990377;28;94947;-73
2022/07/21 12:07:41;;;;;;;26.15;23.60;;;31.40;71.00;;;;;;4976789;28;92467;-73
2022/07/21 12:10:25;;;;;;;27.30;24.73;;;31.40;70.40;;;;;;4975068;28;95702;-73
2022/07/21 12:12:58;;;;;;;26.85;24.02;;;31.40;70.30;;;;;;4975328;28;93330;-73
2022/07/21 12:15:30;;;;;;;29.55;26.65;;;31.20;72.20;;;;;;4975616;28;92579;-73
2022/07/21 12:18:03;;;;;;;30.38;27.55;;;31.10;73.20;;;;;;4975331;28;92557;-73
2022/07/21 12:20:33;;;;;;;28.92;26.13;;;31.10;72.80;;;;;;4975340;28;93191;-73
2022/07/21 12:23:20;;;;;;;30.52;27.50;;;31.10;73.10;;;;;;4977038;28;93111;-73
2022/07/21 12:25:47;;;;;;;30.52;27.63;;;31.20;73.20;;;;;;4975630;28;92510;-73
2022/07/21 12:28:20;;;;;;;27.45;24.95;;;31.20;72.50;;;;;;4959548;28;92916;-73
2022/07/21 12:30:51;;;;;;;27.67;25.17;;;31.20;73.00;;;;;;4989940;28;108370;-73
2022/07/21 12:33:28;;;;;;;23.20;21.00;;;31.20;72.00;;;;;;4974789;28;94309;-73
2022/07/21 12:36:04;;;;;;;17.50;15.82;;;31.00;73.00;;;;;;4975454;28;92603;-73
2022/07/21 12:38:46;;;;;;;15.23;13.77;;;30.70;73.60;;;;;;4976772;28;93003;-73
2022/07/21 12:41:15;;;;;;;16.65;15.05;;;30.30;74.00;;;;;;4975061;28;92548;-73
2022/07/21 12:44:00;;;;;;;19.75;17.85;;;30.00;75.00;;;;;;4974900;28;94839;-73
2022/07/21 12:46:33;;;;;;;21.15;19.35;;;29.90;76.00;;;;;;4976787;28;93037;-73